Time;durP1;ratioP1;P1;durP2;ratioP2;P2;SDS_P1;SDS_P2;PMS_P1;PMS_P2;Temp;Humidity;BMP_temperature;BMP_pressure;BME280_temperature;BME280_humidity;BME280_pressure;Samples;Min_cycle;Max_cycle;Signal;HPM_P1;HPM_P2
2021/09/24 00:01:20;;;;;;;11.35;0.82;;;;;;;12.68;100.00;101208.47;6325362;28;20044;-78
2021/09/24 00:04:21;;;;;;;3.78;0.55;;;;;;;12.66;100.00;101197.13;6324396;28;20044;-78
2021/09/24 00:07:22;;;;;;;1.15;0.57;;;;;;;12.66;100.00;101205.91;6325232;28;20052;-79
2021/09/24 00:10:25;;;;;;;6.43;1.50;;;;;;;12.62;100.00;101208.78;6325131;28;20067;-76
2021/09/24 00:13:26;;;;;;;5.40;1.10;;;;;;;12.62;100.00;101211.41;6325030;28;20502;-77
2021/09/24 00:16:28;;;;;;;4.40;1.27;;;;;;;12.61;100.00;101212.38;6324762;28;20044;-78
2021/09/24 00:19:29;;;;;;;1.13;0.63;;;;;;;12.61;100.00;101215.00;6324996;28;20048;-76
2021/09/24 00:22:31;;;;;;;4.40;1.00;;;;;;;12.58;100.00;101217.78;6325264;28;20040;-78
2021/09/24 00:25:34;;;;;;;7.43;1.08;;;;;;;12.59;100.00;101212.47;6325117;28;20073;-78
2021/09/24 00:28:35;;;;;;;1.42;0.70;;;;;;;12.56;100.00;101209.13;6324601;28;20048;-78
2021/09/24 00:31:36;;;;;;;2.08;0.77;;;;;;;12.52;100.00;101208.44;6325194;28;20048;-78
2021/09/24 00:34:38;;;;;;;2.17;0.60;;;;;;;12.47;100.00;101207.00;6325515;28;20052;-78
2021/09/24 00:37:39;;;;;;;0.55;0.50;;;;;;;12.48;100.00;101219.22;6327386;28;20051;-78
2021/09/24 00:40:42;;;;;;;8.52;1.23;;;;;;;12.46;100.00;101207.94;6329060;28;20040;-78
2021/09/24 00:43:43;;;;;;;0.90;0.55;;;;;;;12.48;100.00;101211.31;6335481;28;20040;-79
2021/09/24 00:46:44;;;;;;;2.03;1.15;;;;;;;12.40;100.00;101211.75;6340834;28;20050;-78
2021/09/24 00:49:47;;;;;;;0.60;0.50;;;;;;;12.37;100.00;101207.50;6348070;28;20035;-78
2021/09/24 00:52:52;;;;;;;1.90;0.63;;;;;;;12.34;100.00;101198.88;6347786;28;20058;-77
2021/09/24 00:55:55;;;;;;;1.48;0.52;;;;;;;12.29;100.00;101206.19;6340591;28;20047;-78
2021/09/24 00:58:56;;;;;;;1.08;0.57;;;;;;;12.25;100.00;101199.38;6337428;28;20051;-78
2021/09/24 01:01:58;;;;;;;2.03;0.82;;;;;;;12.26;100.00;101187.91;6336821;28;20044;-78
2021/09/24 01:04:59;;;;;;;0.32;0.32;;;;;;;12.21;100.00;101195.19;6323681;28;20056;-79
2021/09/24 01:08:02;;;;;;;2.92;0.60;;;;;;;12.20;100.00;101183.81;6324878;28;20047;-78
2021/09/24 01:11:04;;;;;;;6.05;1.30;;;;;;;12.21;100.00;101185.50;6325446;28;20055;-78
2021/09/24 01:14:06;;;;;;;3.17;0.68;;;;;;;12.20;100.00;101183.81;6341851;28;20044;-78
2021/09/24 01:17:07;;;;;;;0.65;0.65;;;;;;;12.15;100.00;101177.94;6344346;28;20059;-78
2021/09/24 01:20:11;;;;;;;2.55;0.60;;;;;;;12.11;100.00;101176.41;6342216;28;20059;-78
2021/09/24 01:23:14;;;;;;;3.60;0.88;;;;;;;12.16;100.00;101180.47;6340936;28;20059;-78
2021/09/24 01:26:15;;;;;;;2.50;0.90;;;;;;;11.99;100.00;101184.94;6343136;28;20055;-77
2021/09/24 01:29:18;;;;;;;0.68;0.47;;;;;;;11.96;100.00;101188.59;6335387;28;20052;-78
2021/09/24 01:32:19;;;;;;;0.70;0.60;;;;;;;12.00;100.00;101191.94;6324073;28;20408;-78
2021/09/24 01:35:21;;;;;;;1.85;0.77;;;;;;;11.90;100.00;101189.78;6324157;28;20419;-78
2021/09/24 01:38:23;;;;;;;2.00;1.10;;;;;;;11.87;100.00;101195.19;6323530;28;20055;-77
2021/09/24 01:41:25;;;;;;;1.45;0.63;;;;;;;11.88;100.00;101191.63;6323276;28;20135;-78
2021/09/24 01:44:26;;;;;;;0.68;0.63;;;;;;;11.79;100.00;101197.31;6322963;28;20055;-78
2021/09/24 01:47:27;;;;;;;2.63;0.75;;;;;;;11.77;100.00;101188.66;6322900;28;20059;-78
2021/09/24 01:50:29;;;;;;;0.82;0.50;;;;;;;11.82;100.00;101191.94;6322092;28;20044;-77
2021/09/24 01:53:31;;;;;;;0.73;0.50;;;;;;;11.75;100.00;101190.50;6321915;28;20055;-77
2021/09/24 01:56:33;;;;;;;2.15;0.77;;;;;;;11.79;100.00;101194.69;6321979;28;20404;-78
2021/09/24 01:59:34;;;;;;;1.40;0.80;;;;;;;11.75;100.00;101189.66;6322192;28;20048;-78
2021/09/24 02:02:35;;;;;;;1.38;0.50;;;;;;;11.75;100.00;101200.19;6322019;28;20051;-80
2021/09/24 02:05:37;;;;;;;0.43;0.43;;;;;;;11.71;100.00;101186.31;6322107;28;20044;-77
2021/09/24 02:08:39;;;;;;;0.75;0.40;;;;;;;11.69;100.00;101186.41;6322661;28;20055;-78
2021/09/24 02:11:41;;;;;;;4.82;0.70;;;;;;;11.70;100.00;101195.16;6322543;28;20044;-77
2021/09/24 02:14:42;;;;;;;0.90;0.47;;;;;;;11.72;100.00;101195.94;6324508;28;20048;-78
2021/09/24 02:17:44;;;;;;;5.93;0.60;;;;;;;11.74;100.00;101196.72;6327890;28;20419;-79
2021/09/24 02:20:45;;;;;;;0.75;0.47;;;;;;;11.66;100.00;101191.81;6327588;28;20420;-77
2021/09/24 02:23:48;;;;;;;1.00;0.55;;;;;;;11.68;100.00;101199.66;6327455;28;20082;-78
2021/09/24 02:26:50;;;;;;;2.15;0.70;;;;;;;11.74;100.00;101193.22;6327185;28;20056;-78
2021/09/24 02:29:51;;;;;;;0.45;0.40;;;;;;;11.72;100.00;101193.31;6326882;28;20406;-77
2021/09/24 02:32:52;;;;;;;3.95;0.50;;;;;;;11.70;100.00;101189.88;6326871;28;20044;-77
2021/09/24 02:35:54;;;;;;;0.63;0.40;;;;;;;11.69;100.00;101193.47;6326531;28;20048;-77
2021/09/24 02:38:57;;;;;;;2.22;0.80;;;;;;;11.69;100.00;101199.56;6326694;28;20070;-76
2021/09/24 02:41:58;;;;;;;1.20;0.50;;;;;;;11.72;100.00;101200.34;6326309;28;20047;-78
2021/09/24 02:44:59;;;;;;;1.30;0.55;;;;;;;11.69;100.00;101204.00;6326167;28;20052;-78
2021/09/24 02:48:01;;;;;;;4.45;0.43;;;;;;;11.65;100.00;101205.91;6326377;28;20048;-78
2021/09/24 02:51:02;;;;;;;1.73;0.75;;;;;;;11.64;100.00;101212.13;6326052;28;20052;-77
2021/09/24 02:54:05;;;;;;;2.00;0.63;;;;;;;11.70;100.00;101200.41;6325766;28;20051;-77
2021/09/24 02:57:07;;;;;;;0.52;0.35;;;;;;;11.68;100.00;101195.25;6325764;28;20074;-78
2021/09/24 03:00:09;;;;;;;4.45;0.75;;;;;;;11.67;100.00;101208.47;6326019;28;20518;-77
2021/09/24 03:03:11;;;;;;;0.88;0.52;;;;;;;11.66;100.00;101206.78;6325943;28;20051;-77
2021/09/24 03:06:12;;;;;;;6.05;0.70;;;;;;;11.73;100.00;101202.91;6325407;28;20058;-78
2021/09/24 03:09:15;;;;;;;0.88;0.52;;;;;;;11.67;100.00;101193.56;6325753;28;20173;-77
2021/09/24 03:12:16;;;;;;;4.47;1.08;;;;;;;11.66;100.00;101199.72;6325830;28;20044;-77
2021/09/24 03:15:18;;;;;;;5.13;0.73;;;;;;;11.62;100.00;101208.69;6325195;28;20048;-77
2021/09/24 03:18:19;;;;;;;1.63;0.50;;;;;;;11.62;100.00;101210.47;6325479;28;20415;-78
2021/09/24 03:21:20;;;;;;;1.95;0.75;;;;;;;11.66;100.00;101214.66;6325203;28;20059;-77
2021/09/24 03:24:23;;;;;;;0.70;0.52;;;;;;;11.69;100.00;101220.63;6324648;28;20048;-78
2021/09/24 03:27:24;;;;;;;1.17;0.70;;;;;;;11.62;100.00;101211.34;6324498;28;20048;-77
2021/09/24 03:30:26;;;;;;;1.58;1.02;;;;;;;11.65;100.00;101216.44;6325155;28;20055;-77
2021/09/24 03:33:27;;;;;;;4.85;0.70;;;;;;;11.61;100.00;101212.25;6324778;28;20044;-77
2021/09/24 03:36:29;;;;;;;0.50;0.50;;;;;;;11.63;100.00;101206.94;6324810;28;20123;-78
2021/09/24 03:39:31;;;;;;;3.92;0.80;;;;;;;11.61;100.00;101211.41;6324939;28;20052;-77
2021/09/24 03:42:33;;;;;;;0.60;0.60;;;;;;;11.62;100.00;101215.75;6324683;28;20047;-77
2021/09/24 03:45:34;;;;;;;2.80;0.70;;;;;;;11.64;100.00;101208.63;6324264;28;20492;-77
2021/09/24 03:48:36;;;;;;;5.28;1.38;;;;;;;11.67;100.00;101211.09;6324226;28;20044;-76
2021/09/24 03:51:37;;;;;;;3.83;0.80;;;;;;;11.65;100.00;101215.59;6323901;28;20036;-77
2021/09/24 03:54:40;;;;;;;2.53;0.80;;;;;;;11.67;100.00;101217.25;6323912;28;20048;-77
2021/09/24 03:57:41;;;;;;;3.42;1.23;;;;;;;11.65;100.00;101226.13;6324024;28;20048;-77
2021/09/24 04:00:43;;;;;;;1.77;1.10;;;;;;;11.66;100.00;101225.19;6324570;28;20047;-77
2021/09/24 04:03:44;;;;;;;1.02;0.60;;;;;;;11.69;100.00;101218.00;6324253;28;20052;-75
2021/09/24 04:06:45;;;;;;;3.15;1.00;;;;;;;11.72;100.00;101218.75;6324323;28;20059;-77
2021/09/24 04:09:48;;;;;;;1.13;0.82;;;;;;;11.75;100.00;101213.34;6323532;28;20059;-77
2021/09/24 04:12:49;;;;;;;1.60;0.75;;;;;;;11.79;100.00;101213.13;6324350;28;20047;-77
2021/09/24 04:15:51;;;;;;;0.60;0.60;;;;;;;11.81;100.00;101211.28;6323527;28;20396;-77
2021/09/24 04:18:52;;;;;;;7.28;1.35;;;;;;;11.87;100.00;101216.25;6324132;28;20059;-77
2021/09/24 04:21:53;;;;;;;3.20;0.68;;;;;;;11.92;100.00;101211.59;6323825;28;20514;-78
2021/09/24 04:24:56;;;;;;;0.65;0.65;;;;;;;11.95;100.00;101207.13;6323406;28;20055;-77
2021/09/24 04:27:57;;;;;;;3.58;1.27;;;;;;;11.99;100.00;101216.53;6323780;28;20418;-78
2021/09/24 04:30:59;;;;;;;1.20;0.90;;;;;;;11.97;100.00;101206.09;6323629;28;20177;-77
2021/09/24 04:34:00;;;;;;;2.10;1.08;;;;;;;11.99;100.00;101217.41;6323371;28;20052;-77
2021/09/24 04:37:02;;;;;;;4.35;0.63;;;;;;;11.99;100.00;101209.50;6323406;28;20063;-77
2021/09/24 04:40:06;;;;;;;3.50;1.55;;;;;;;12.03;100.00;101211.03;6322561;28;20075;-77
2021/09/24 04:43:08;;;;;;;1.50;1.10;;;;;;;12.02;100.00;101209.34;6323515;28;20070;-78
2021/09/24 04:46:10;;;;;;;3.13;0.80;;;;;;;12.04;100.00;101204.00;6323079;28;20051;-78
2021/09/24 04:49:11;;;;;;;1.38;0.82;;;;;;;12.08;100.00;101210.78;6323289;28;20052;-76
2021/09/24 04:52:13;;;;;;;2.00;0.77;;;;;;;12.08;100.00;101214.31;6323231;28;20041;-77
2021/09/24 04:55:16;;;;;;;2.65;0.75;;;;;;;12.10;100.00;101212.44;6322728;28;20040;-77
2021/09/24 04:58:17;;;;;;;6.82;1.20;;;;;;;12.11;100.00;101214.13;6323290;28;20052;-79
2021/09/24 05:01:19;;;;;;;1.27;0.70;;;;;;;12.13;100.00;101211.44;6323522;28;20044;-78
2021/09/24 05:04:20;;;;;;;0.93;0.55;;;;;;;12.14;100.00;101208.72;6323090;28;20048;-77
2021/09/24 05:07:22;;;;;;;5.90;1.27;;;;;;;12.13;100.00;101214.06;6323086;28;20499;-78
2021/09/24 05:10:24;;;;;;;1.70;0.82;;;;;;;12.15;100.00;101204.28;6322819;28;20048;-78
2021/09/24 05:13:26;;;;;;;2.92;2.03;;;;;;;12.17;100.00;101207.66;6322307;28;20075;-77
2021/09/24 05:16:27;;;;;;;1.70;0.65;;;;;;;12.21;100.00;101216.28;6322674;28;20093;-77
2021/09/24 05:19:28;;;;;;;4.55;0.93;;;;;;;12.23;100.00;101222.34;6322968;28;20055;-77
2021/09/24 05:22:30;;;;;;;7.15;2.25;;;;;;;12.22;100.00;101213.59;6322936;28;20056;-77
2021/09/24 05:25:32;;;;;;;2.45;0.60;;;;;;;12.26;100.00;101203.72;6323018;28;20048;-78
2021/09/24 05:28:34;;;;;;;1.20;0.75;;;;;;;12.29;100.00;101212.31;6322501;28;20066;-78
2021/09/24 05:31:35;;;;;;;4.28;1.20;;;;;;;12.30;100.00;101214.00;6322376;28;20047;-78
2021/09/24 05:34:37;;;;;;;0.85;0.65;;;;;;;12.34;100.00;101215.53;6322416;28;20055;-76
2021/09/24 05:37:39;;;;;;;0.50;0.50;;;;;;;12.39;100.00;101223.22;6322608;28;20043;-78
2021/09/24 05:40:42;;;;;;;3.30;0.77;;;;;;;12.37;100.00;101212.75;6323301;28;20048;-79
2021/09/24 05:43:44;;;;;;;3.85;1.45;;;;;;;12.39;100.00;101210.03;6322151;28;20040;-77
2021/09/24 05:46:45;;;;;;;2.33;0.80;;;;;;;12.44;100.00;101208.00;6322084;28;20056;-77
2021/09/24 05:49:46;;;;;;;2.33;0.90;;;;;;;12.45;100.00;101207.09;6322128;28;20048;-78
2021/09/24 05:52:50;;;;;;;4.03;0.95;;;;;;;12.46;100.00;101203.50;6322480;28;20052;-78
2021/09/24 05:55:53;;;;;;;0.40;0.40;;;;;;;12.50;100.00;101212.09;6322144;28;20092;-78
2021/09/24 05:58:54;;;;;;;6.38;0.52;;;;;;;12.52;100.00;101199.69;6322002;28;20133;-77
2021/09/24 06:01:56;;;;;;;0.90;0.70;;;;;;;12.55;100.00;101207.44;6322244;28;20048;-77
2021/09/24 06:04:58;;;;;;;2.78;0.95;;;;;;;12.60;100.00;101205.41;6321744;28;20044;-78
2021/09/24 06:08:00;;;;;;;3.33;0.63;;;;;;;12.61;100.00;101200.03;6322176;28;20048;-77
2021/09/24 06:11:02;;;;;;;2.25;1.58;;;;;;;12.72;100.00;101203.84;6322033;28;20055;-77
2021/09/24 06:14:04;;;;;;;1.05;0.60;;;;;;;12.75;100.00;101203.69;6321957;28;20048;-77
2021/09/24 06:17:07;;;;;;;2.28;0.70;;;;;;;12.75;100.00;101203.69;6321846;28;20059;-79
2021/09/24 06:20:10;;;;;;;0.90;0.70;;;;;;;12.76;100.00;101200.97;6321985;28;20105;-78
2021/09/24 06:23:12;;;;;;;2.28;0.85;;;;;;;12.82;100.00;101192.75;6322171;28;20055;-78
2021/09/24 06:26:15;;;;;;;4.63;1.00;;;;;;;12.84;100.00;101198.75;6322240;28;20048;-78
2021/09/24 06:29:16;;;;;;;2.72;0.63;;;;;;;12.92;100.00;101191.28;6321620;28;20084;-76
2021/09/24 06:32:18;;;;;;;2.65;0.75;;;;;;;13.01;100.00;101202.25;6322230;28;20048;-79
2021/09/24 06:35:20;;;;;;;6.07;0.93;;;;;;;13.04;100.00;101202.94;6320751;28;20126;-78
2021/09/24 06:38:22;;;;;;;0.45;0.45;;;;;;;13.17;100.00;101208.34;6322731;28;20510;-78
2021/09/24 06:41:25;;;;;;;6.40;1.85;;;;;;;13.25;100.00;101203.53;6322752;28;20048;-77
2021/09/24 06:44:26;;;;;;;4.20;0.55;;;;;;;13.34;100.00;101210.91;6320680;28;20048;-78
2021/09/24 06:47:28;;;;;;;1.10;0.60;;;;;;;13.41;100.00;101212.28;6331195;22;20059;-77
2021/09/24 06:50:29;;;;;;;1.35;0.80;;;;;;;13.39;100.00;101214.13;6295922;28;20056;-77
2021/09/24 06:53:31;;;;;;;4.38;0.90;;;;;;;13.41;100.00;101207.00;6295407;28;20045;-77
2021/09/24 06:56:34;;;;;;;2.47;1.33;;;;;;;13.47;100.00;101205.78;6294560;28;20049;-78
2021/09/24 06:59:35;;;;;;;3.35;1.50;;;;;;;13.59;100.00;101213.00;6295698;28;20048;-77
2021/09/24 07:02:37;;;;;;;0.85;0.65;;;;;;;13.56;100.00;101218.44;6297289;28;20056;-77
2021/09/24 07:05:38;;;;;;;1.75;0.68;;;;;;;13.58;100.00;101219.22;6299838;28;20055;-76
2021/09/24 07:08:39;;;;;;;1.35;0.85;;;;;;;13.61;100.00;101218.19;6299992;28;20430;-76
2021/09/24 07:11:44;;;;;;;4.72;1.02;;;;;;;13.59;100.00;101223.56;6300303;28;20057;-76
2021/09/24 07:14:45;;;;;;;2.55;0.90;;;;;;;13.57;100.00;101208.75;6299707;28;20049;-77
2021/09/24 07:17:46;;;;;;;4.63;1.15;;;;;;;13.58;100.00;101216.59;6300188;28;20052;-77
2021/09/24 07:20:48;;;;;;;0.95;0.68;;;;;;;13.54;100.00;101212.44;6299855;28;20052;-77
2021/09/24 07:23:49;;;;;;;0.80;0.80;;;;;;;13.55;100.00;101206.19;6299875;28;20041;-77
2021/09/24 07:26:52;;;;;;;1.25;0.88;;;;;;;13.59;100.00;101215.66;6299800;28;20052;-77
2021/09/24 07:29:53;;;;;;;2.25;1.08;;;;;;;13.66;100.00;101206.41;6300034;28;20052;-77
2021/09/24 07:32:54;;;;;;;0.55;0.50;;;;;;;13.65;100.00;101202.06;6299966;28;20041;-77
2021/09/24 07:35:56;;;;;;;0.77;0.77;;;;;;;13.70;100.00;101207.94;6299729;28;20048;-77
2021/09/24 07:38:57;;;;;;;0.77;0.40;;;;;;;13.76;100.00;101219.06;6299578;28;20430;-78
2021/09/24 07:42:00;;;;;;;2.72;1.02;;;;;;;13.75;100.00;101220.03;6299955;28;20499;-77
2021/09/24 07:45:01;;;;;;;3.15;1.13;;;;;;;13.77;100.00;101224.28;6299515;28;20052;-78
2021/09/24 07:48:03;;;;;;;1.90;0.75;;;;;;;13.80;100.00;101220.59;6299354;28;20056;-77
2021/09/24 07:51:04;;;;;;;5.38;0.70;;;;;;;13.83;100.00;101223.91;6299538;28;20518;-76
2021/09/24 07:54:05;;;;;;;0.95;0.70;;;;;;;13.85;100.00;101219.41;6298810;28;20102;-77
2021/09/24 07:57:08;;;;;;;0.95;0.73;;;;;;;13.89;100.00;101222.69;6299418;28;20143;-77
2021/09/24 08:00:10;;;;;;;2.53;1.15;;;;;;;13.92;100.00;101230.44;6299109;28;20059;-77
2021/09/24 08:03:12;;;;;;;0.90;0.68;;;;;;;14.01;100.00;101232.53;6299320;28;20048;-77
2021/09/24 08:06:14;;;;;;;3.05;0.70;;;;;;;14.00;100.00;101230.84;6298630;28;20049;-76
2021/09/24 08:09:16;;;;;;;1.25;0.90;;;;;;;14.07;100.00;101237.44;6298837;28;20411;-77
2021/09/24 08:12:19;;;;;;;3.75;0.95;;;;;;;14.06;100.00;101234.91;6298702;28;20411;-78
2021/09/24 08:15:21;;;;;;;2.13;0.98;;;;;;;14.10;100.00;101233.78;6298411;28;20045;-76
2021/09/24 08:18:23;;;;;;;1.27;0.77;;;;;;;14.12;100.00;101230.09;6298461;28;20055;-76
2021/09/24 08:21:24;;;;;;;0.95;0.85;;;;;;;14.12;100.00;101231.88;6298110;28;20492;-76
2021/09/24 08:24:26;;;;;;;3.00;1.02;;;;;;;14.17;100.00;101221.88;6298274;28;20055;-75
2021/09/24 08:27:28;;;;;;;3.63;0.80;;;;;;;14.21;100.00;101228.69;6298107;28;20056;-77
2021/09/24 08:30:30;;;;;;;1.73;1.02;;;;;;;14.26;100.00;101220.47;6298118;28;20434;-76
2021/09/24 08:33:31;;;;;;;1.05;0.70;;;;;;;14.33;100.00;101219.16;6297702;28;20048;-77
2021/09/24 08:36:34;;;;;;;2.25;1.02;;;;;;;14.34;100.00;101219.06;6298025;28;20060;-77
2021/09/24 08:39:35;;;;;;;2.58;1.00;;;;;;;14.36;100.00;101209.25;6297499;28;20049;-77
2021/09/24 08:42:40;;;;;;;2.60;0.90;;;;;;;14.50;100.00;101215.50;6297832;28;20045;-77
2021/09/24 08:45:42;;;;;;;1.17;0.80;;;;;;;14.51;100.00;101217.22;6297434;28;20174;-77
2021/09/24 08:48:44;;;;;;;1.25;0.88;;;;;;;14.53;100.00;101224.09;6297538;28;20423;-76
2021/09/24 08:51:46;;;;;;;5.05;1.20;;;;;;;14.66;100.00;101225.00;6297554;28;20409;-76
2021/09/24 08:54:48;;;;;;;3.20;1.30;;;;;;;14.78;100.00;101220.75;6297027;28;20052;-76
2021/09/24 08:57:51;;;;;;;1.67;1.08;;;;;;;14.90;100.00;101221.78;6297362;28;20052;-77
2021/09/24 09:00:53;;;;;;;2.95;1.20;;;;;;;14.98;100.00;101220.31;6297248;28;20059;-74
2021/09/24 09:03:55;;;;;;;2.80;0.85;;;;;;;15.02;100.00;101215.69;6297263;28;20040;-76
2021/09/24 09:07:04;;;;;;;4.53;1.20;;;;;;;15.08;100.00;101212.66;6297229;28;20542;-75
2021/09/24 09:10:06;;;;;;;0.70;0.70;;;;;;;15.11;100.00;101214.25;6297210;28;20044;-76
2021/09/24 09:13:11;;;;;;;1.42;1.17;;;;;;;15.13;100.00;101215.88;6297090;28;20049;-76
2021/09/24 09:16:15;;;;;;;1.13;0.93;;;;;;;15.23;100.00;101202.88;6297000;28;20049;-77
2021/09/24 09:19:17;;;;;;;2.00;1.15;;;;;;;15.25;100.00;101206.25;6297070;28;20056;-77
2021/09/24 09:22:22;;;;;;;3.28;1.00;;;;;;;15.35;100.00;101203.84;6297391;28;20118;-77
2021/09/24 09:25:27;;;;;;;1.27;1.05;;;;;;;15.42;100.00;101213.09;6296292;28;20049;-77
2021/09/24 09:28:35;;;;;;;2.70;1.23;;;;;;;15.43;100.00;101205.03;6287762;28;20049;-77
2021/09/24 09:31:36;;;;;;;1.20;0.80;;;;;;;15.36;100.00;101195.81;6293172;28;20045;-78
2021/09/24 09:34:38;;;;;;;3.88;1.42;;;;;;;15.32;100.00;101198.78;6296043;28;20198;-77
2021/09/24 09:37:40;;;;;;;4.90;1.52;;;;;;;15.36;100.00;101202.91;6296361;28;20048;-77
2021/09/24 09:40:42;;;;;;;3.63;1.30;;;;;;;15.28;100.00;101198.13;6297411;28;20094;-78
2021/09/24 09:43:47;;;;;;;4.45;2.38;;;;;;;15.32;100.00;101201.41;6297157;28;20414;-77
2021/09/24 09:46:49;;;;;;;2.30;1.20;;;;;;;15.35;100.00;101210.03;6296948;28;20058;-77
2021/09/24 09:50:04;;;;;;;7.40;1.77;;;;;;;15.36;100.00;101193.16;6297036;28;20423;-77
2021/09/24 09:53:08;;;;;;;2.83;1.20;;;;;;;15.49;100.00;101195.84;6271864;28;20052;-77
2021/09/24 09:56:09;;;;;;;2.05;1.08;;;;;;;15.51;100.00;101199.25;6271961;28;20117;-77
2021/09/24 09:59:31;;;;;;;2.22;0.98;;;;;;;15.57;100.00;101197.97;6272262;28;20053;-77
2021/09/24 10:02:35;;;;;;;1.48;1.00;;;;;;;15.64;100.00;101196.66;6272296;28;20048;-77
2021/09/24 10:05:38;;;;;;;4.93;1.20;;;;;;;15.58;100.00;101197.00;6271624;28;20053;-77
2021/09/24 10:08:41;;;;;;;3.85;1.30;;;;;;;15.63;100.00;101192.28;6271954;28;20056;-79
2021/09/24 10:11:42;;;;;;;2.55;1.55;;;;;;;15.62;100.00;101202.00;6271919;28;20048;-77
2021/09/24 10:14:45;;;;;;;3.40;1.10;;;;;;;15.73;100.00;101193.38;6271975;28;20045;-77
2021/09/24 10:17:46;;;;;;;1.48;1.08;;;;;;;15.80;100.00;101194.66;6271582;28;20060;-78
2021/09/24 10:20:49;;;;;;;5.35;1.63;;;;;;;15.80;100.00;101192.00;6271859;28;20485;-77
2021/09/24 10:23:51;;;;;;;2.35;1.23;;;;;;;15.80;100.00;101186.69;6271506;28;20049;-78
2021/09/24 10:26:57;;;;;;;2.55;1.40;;;;;;;15.83;100.00;101191.78;6271571;28;20500;-78
2021/09/24 10:30:07;;;;;;;3.58;1.20;;;;;;;15.80;100.00;101194.66;6272013;28;20064;-77
2021/09/24 10:33:13;;;;;;;4.80;1.30;;;;;;;15.88;100.00;101189.69;6271805;28;20048;-77
2021/09/24 10:36:38;;;;;;;4.03;1.20;;;;;;;15.84;100.00;101193.50;6271728;28;20053;-78
2021/09/24 10:39:44;;;;;;;3.72;1.23;;;;;;;15.96;100.00;101184.72;6276433;28;20053;-77
2021/09/24 10:42:48;;;;;;;1.58;1.13;;;;;;;16.00;100.00;101187.16;6276893;28;20059;-78
2021/09/24 10:45:51;;;;;;;2.17;1.48;;;;;;;16.08;100.00;101187.44;6276097;28;20115;-78
2021/09/24 10:49:30;;;;;;;3.22;1.77;;;;;;;16.24;100.00;101182.78;6276338;28;20052;-77
2021/09/24 10:52:36;;;;;;;7.55;2.03;;;;;;;16.30;100.00;101179.69;6276288;28;20056;-77
2021/09/24 10:55:40;;;;;;;2.83;1.52;;;;;;;16.32;100.00;101169.84;6275883;28;20052;-78
2021/09/24 10:58:42;;;;;;;2.33;1.65;;;;;;;16.34;100.00;101170.56;6276375;28;20060;-77
2021/09/24 11:01:45;;;;;;;3.50;1.67;;;;;;;16.43;100.00;101171.72;6276091;28;20056;-77
2021/09/24 11:04:48;;;;;;;4.97;1.38;;;;;;;16.42;100.00;101167.38;6275787;28;20535;-77
2021/09/24 11:07:49;;;;;;;2.78;1.80;;;;;;;16.43;100.00;101169.06;6275782;28;20045;-77
2021/09/24 11:11:02;;;;;;;4.78;1.70;;;;;;;16.50;100.00;101165.03;6275969;28;20047;-78
2021/09/24 11:14:30;;;;;;;3.92;1.65;;;;;;;16.48;100.00;101169.59;6275238;28;20048;-78
2021/09/24 11:17:46;;;;;;;4.35;1.60;;;;;;;16.45;100.00;101172.47;6275382;28;20420;-78
2021/09/24 11:20:56;;;;;;;8.18;2.38;;;;;;;16.51;100.00;101166.72;6275778;28;20120;-77
2021/09/24 11:24:00;;;;;;;4.78;2.17;;;;;;;16.55;100.00;101164.69;6274926;28;20045;-77
2021/09/24 11:27:04;;;;;;;4.45;1.60;;;;;;;16.58;100.00;101161.81;6275072;28;20048;-77
2021/09/24 11:30:11;;;;;;;2.25;1.38;;;;;;;16.60;100.00;101163.41;6275231;28;20060;-76
2021/09/24 11:33:45;;;;;;;4.68;1.60;;;;;;;16.65;100.00;101155.13;6275544;28;20056;-77
2021/09/24 11:37:01;;;;;;;2.83;1.90;;;;;;;16.80;100.00;101156.69;6275416;28;20052;-78
2021/09/24 11:40:06;;;;;;;7.78;3.35;;;;;;;16.79;100.00;101159.44;6275148;28;20049;-77
2021/09/24 11:43:07;;;;;;;3.33;2.22;;;;;;;16.83;100.00;101152.97;6274669;28;20052;-77
2021/09/24 11:46:15;;;;;;;6.85;2.03;;;;;;;16.77;100.00;101156.91;6274677;28;20048;-77
2021/09/24 11:49:17;;;;;;;5.53;2.85;;;;;;;16.80;100.00;101163.78;6273922;28;20059;-76
2021/09/24 11:52:19;;;;;;;5.55;2.67;;;;;;;16.79;100.00;101160.28;6274610;28;20484;-77
2021/09/24 11:55:23;;;;;;;6.15;2.63;;;;;;;16.72;100.00;101165.22;6274432;28;20048;-77
2021/09/24 11:58:24;;;;;;;4.97;2.70;;;;;;;16.74;100.00;101162.44;6274645;28;20052;-77
2021/09/24 12:01:26;;;;;;;5.60;2.85;;;;;;;16.71;100.00;101157.31;6274503;28;20055;-78
2021/09/24 12:04:28;;;;;;;4.88;3.25;;;;;;;16.68;100.00;101155.75;6273993;28;20048;-77
2021/09/24 12:07:30;;;;;;;6.25;3.72;;;;;;;16.79;100.00;101149.69;6273908;28;20053;-77
2021/09/24 12:10:32;;;;;;;7.10;3.47;;;;;;;16.73;100.00;101155.44;6275125;28;20045;-77
2021/09/24 12:13:39;;;;;;;8.55;4.20;;;;;;;16.81;100.00;101149.59;6277548;28;20045;-77
2021/09/24 12:16:42;;;;;;;8.27;3.78;;;;;;;16.77;100.00;101148.97;6278353;28;20053;-77
2021/09/24 12:19:45;;;;;;;6.80;4.20;;;;;;;16.82;100.00;101148.63;6274635;28;20488;-77
2021/09/24 12:22:46;;;;;;;7.18;3.90;;;;;;;16.81;100.00;101144.28;6273605;28;20143;-77
2021/09/24 12:25:57;;;;;;;6.07;4.05;;;;;;;16.79;100.00;101144.38;6273738;28;20052;-77
2021/09/24 12:29:02;;;;;;;6.97;4.47;;;;;;;16.89;100.00;101137.41;6273378;28;20403;-77
2021/09/24 12:32:06;;;;;;;11.15;5.40;;;;;;;16.85;100.00;101145.72;6273397;28;20045;-77
2021/09/24 12:35:12;;;;;;;9.88;5.40;;;;;;;16.89;100.00;101136.56;6285576;28;20404;-78
2021/09/24 12:38:26;;;;;;;7.90;5.03;;;;;;;16.92;100.00;101139.84;6295352;28;20055;-77
2021/09/24 12:41:38;;;;;;;9.80;4.72;;;;;;;16.93;100.00;101140.69;6292317;28;20060;-78
2021/09/24 12:44:58;;;;;;;16.17;7.03;;;;;;;16.93;100.00;101141.53;6296865;28;20048;-77
2021/09/24 12:48:08;;;;;;;15.90;6.20;;;;;;;17.02;100.00;101131.22;6309351;22;20051;-77
2021/09/24 12:51:14;;;;;;;12.45;6.57;;;;;;;17.07;100.00;101129.91;6305031;28;20198;-81
2021/09/24 12:54:16;;;;;;;11.18;5.35;;;;;;;17.09;100.00;101137.78;6302388;28;20412;-82
2021/09/24 12:57:19;;;;;;;10.27;5.28;;;;;;;17.07;100.00;101131.72;6299687;28;20528;-81
2021/09/24 13:00:22;;;;;;;13.38;6.18;;;;;;;17.05;100.00;101131.00;6282128;28;20094;-83
2021/09/24 13:03:28;;;;;;;14.32;6.65;;;;;;;17.01;100.00;101137.50;6293930;28;20052;-80
2021/09/24 13:06:31;;;;;;;18.45;6.72;;;;;;;16.98;100.00;101127.94;6303232;28;20044;-79
2021/09/24 13:09:32;;;;;;;13.70;6.18;;;;;;;16.95;100.00;101128.19;6302410;28;20048;-79
2021/09/24 13:12:37;;;;;;;13.63;5.95;;;;;;;16.96;100.00;101127.22;6302904;28;20048;-79
2021/09/24 13:15:38;;;;;;;13.55;6.35;;;;;;;16.98;100.00;101133.25;6301327;28;20045;-79
2021/09/24 13:18:40;;;;;;;10.70;5.85;;;;;;;17.04;100.00;101131.97;6300605;28;20044;-80
2021/09/24 13:21:42;;;;;;;12.07;6.30;;;;;;;17.07;100.00;101123.75;6301194;28;20075;-80
2021/09/24 13:24:44;;;;;;;14.98;5.75;;;;;;;17.12;100.00;101129.56;6313552;28;20114;-81
2021/09/24 13:27:45;;;;;;;13.38;5.93;;;;;;;17.19;100.00;101122.84;6303165;28;20052;-79
2021/09/24 13:30:47;;;;;;;17.55;6.93;;;;;;;17.16;100.00;101131.88;6301213;28;20055;-78
2021/09/24 13:33:49;;;;;;;13.38;5.93;;;;;;;17.18;100.00;101118.50;6312289;28;20047;-79
2021/09/24 13:36:51;;;;;;;15.75;6.32;;;;;;;17.20;100.00;101119.22;6302104;28;20048;-81
2021/09/24 13:39:53;;;;;;;14.57;6.18;;;;;;;17.20;100.00;101116.56;6299451;28;20065;-80
2021/09/24 13:42:54;;;;;;;16.10;6.70;;;;;;;17.17;100.00;101120.31;6299643;28;20071;-82
2021/09/24 13:45:57;;;;;;;16.88;6.97;;;;;;;17.21;100.00;101120.91;6300372;28;20051;-81
2021/09/24 13:48:58;;;;;;;13.93;5.65;;;;;;;17.24;100.00;101112.72;6302240;28;20090;-79
2021/09/24 13:52:01;;;;;;;13.73;6.50;;;;;;;17.23;100.00;101116.34;6301124;28;20094;-80
2021/09/24 13:55:03;;;;;;;14.55;6.10;;;;;;;17.22;100.00;101115.50;6301445;28;20048;-78
2021/09/24 13:58:05;;;;;;;17.50;6.95;;;;;;;17.21;100.00;101113.81;6302305;28;20049;-79
2021/09/24 14:01:06;;;;;;;13.75;5.90;;;;;;;17.14;100.00;101117.88;6302268;28;20056;-81